Time;durP1;ratioP1;P1;durP2;ratioP2;P2;SDS_P1;SDS_P2;PMS_P1;PMS_P2;Temp;Humidity;BMP_temperature;BMP_pressure;BME280_temperature;BME280_humidity;BME280_pressure;Samples;Min_cycle;Max_cycle;Signal;HPM_P1;HPM_P2
2022/06/29 00:00:52;;;;;;;4.60;2.13;;;19.30;99.90;;;;;;5028216;28;20033;-75
2022/06/29 00:03:17;;;;;;;2.42;1.90;;;19.20;99.90;;;;;;5032635;28;20463;-76
2022/06/29 00:05:43;;;;;;;4.07;2.28;;;19.20;99.90;;;;;;5036006;28;20029;-75
2022/06/29 00:08:09;;;;;;;4.03;1.92;;;19.20;99.90;;;;;;5032604;28;20374;-76
2022/06/29 00:10:37;;;;;;;3.30;1.90;;;19.20;99.90;;;;;;5032929;28;20040;-75
2022/06/29 00:13:03;;;;;;;3.92;2.05;;;19.20;99.90;;;;;;5030737;28;20034;-75
2022/06/29 00:15:29;;;;;;;2.97;2.15;;;19.10;99.90;;;;;;5026463;28;20021;-76
2022/06/29 00:17:54;;;;;;;2.00;1.70;;;19.10;99.90;;;;;;5026077;28;20040;-75
2022/06/29 00:20:21;;;;;;;6.28;2.42;;;19.10;99.90;;;;;;5011313;28;20494;-76
2022/06/29 00:22:47;;;;;;;2.78;1.75;;;19.10;99.90;;;;;;5033758;28;20041;-76
2022/06/29 00:25:14;;;;;;;3.13;2.30;;;19.00;99.90;;;;;;5026077;28;20033;-76
2022/06/29 00:27:41;;;;;;;2.58;1.92;;;19.00;99.90;;;;;;5022808;28;20413;-75
2022/06/29 00:30:08;;;;;;;4.20;2.30;;;19.10;99.90;;;;;;5024683;28;20508;-75
2022/06/29 00:32:34;;;;;;;5.13;1.98;;;19.00;99.90;;;;;;5030656;28;20036;-75
2022/06/29 00:35:00;;;;;;;2.53;1.70;;;19.00;99.90;;;;;;5029161;28;20029;-75
2022/06/29 00:37:26;;;;;;;3.33;1.92;;;18.90;99.90;;;;;;5024667;28;20037;-75
2022/06/29 00:39:52;;;;;;;3.00;1.77;;;18.90;99.90;;;;;;5034098;28;20042;-76
2022/06/29 00:42:19;;;;;;;3.00;1.98;;;18.90;99.90;;;;;;5033569;28;20071;-75
2022/06/29 00:44:44;;;;;;;2.53;2.00;;;18.90;99.90;;;;;;5029056;28;20037;-77
2022/06/29 00:47:10;;;;;;;2.58;1.75;;;18.80;99.90;;;;;;5017297;28;20169;-77
2022/06/29 00:49:36;;;;;;;4.97;2.10;;;18.80;99.90;;;;;;5028455;28;20567;-76
2022/06/29 00:52:15;;;;;;;3.13;1.90;;;18.80;99.90;;;;;;5034557;28;20028;-76
2022/06/29 00:54:47;;;;;;;4.95;1.80;;;18.80;99.90;;;;;;5032272;28;20041;-76
2022/06/29 00:57:18;;;;;;;2.95;1.98;;;18.80;99.90;;;;;;5029585;28;20024;-76
2022/06/29 00:59:47;;;;;;;1.80;1.65;;;18.70;99.90;;;;;;5048699;28;20025;-76
2022/06/29 01:02:14;;;;;;;3.40;1.88;;;18.80;99.90;;;;;;5034856;28;20049;-76
2022/06/29 01:04:41;;;;;;;2.30;1.90;;;18.70;99.90;;;;;;5016749;28;20362;-76
2022/06/29 01:07:07;;;;;;;4.47;2.03;;;18.70;99.90;;;;;;5030267;28;20028;-76
2022/06/29 01:09:33;;;;;;;3.58;1.95;;;18.70;99.90;;;;;;5032942;28;20455;-77
2022/06/29 01:11:59;;;;;;;2.40;1.75;;;18.70;99.90;;;;;;5031958;28;20025;-75
2022/06/29 01:14:25;;;;;;;5.80;2.05;;;18.60;99.90;;;;;;5033786;28;20025;-75
2022/06/29 01:16:51;;;;;;;2.78;1.70;;;18.60;99.90;;;;;;5046789;28;20052;-76
2022/06/29 01:19:16;;;;;;;4.28;1.80;;;18.60;99.90;;;;;;5032740;28;20021;-75
2022/06/29 01:21:45;;;;;;;2.47;1.58;;;18.60;99.90;;;;;;5031936;28;20070;-75
2022/06/29 01:24:11;;;;;;;2.33;1.77;;;18.60;99.90;;;;;;5032748;28;20405;-75
2022/06/29 01:26:36;;;;;;;4.03;1.73;;;18.50;99.90;;;;;;5027692;28;20028;-75
2022/06/29 01:29:02;;;;;;;3.63;1.98;;;18.50;99.90;;;;;;5035306;28;20099;-76
2022/06/29 01:31:28;;;;;;;2.70;1.98;;;18.50;99.90;;;;;;5034756;28;20453;-76
2022/06/29 01:33:53;;;;;;;2.28;1.98;;;18.50;99.90;;;;;;5030828;28;20268;-76
2022/06/29 01:36:19;;;;;;;5.22;2.15;;;18.50;99.90;;;;;;5030082;28;20116;-75
2022/06/29 01:38:45;;;;;;;3.60;1.98;;;18.50;99.90;;;;;;5032345;28;20073;-76
2022/06/29 01:41:11;;;;;;;3.83;1.90;;;18.50;99.90;;;;;;5032274;28;20030;-77
2022/06/29 01:43:38;;;;;;;3.45;2.00;;;18.40;99.90;;;;;;5035904;28;20040;-76
2022/06/29 01:46:04;;;;;;;2.83;2.00;;;18.40;99.90;;;;;;5029229;28;20032;-75
2022/06/29 01:48:29;;;;;;;3.30;1.60;;;18.40;99.90;;;;;;5036588;28;20041;-75
2022/06/29 01:50:55;;;;;;;3.40;1.95;;;18.40;99.90;;;;;;5038326;28;20034;-75
2022/06/29 01:53:21;;;;;;;2.53;2.00;;;18.40;99.90;;;;;;5032788;28;20565;-75
2022/06/29 01:55:47;;;;;;;3.90;1.90;;;18.40;99.90;;;;;;5010380;28;20025;-76
2022/06/29 01:58:14;;;;;;;3.58;1.63;;;18.30;99.90;;;;;;5038338;28;20035;-76
2022/06/29 02:00:40;;;;;;;2.83;1.77;;;18.30;99.90;;;;;;5033030;28;20384;-75
2022/06/29 02:03:06;;;;;;;2.25;1.70;;;18.30;99.90;;;;;;5032753;28;20021;-75
2022/06/29 02:05:32;;;;;;;3.13;1.83;;;18.30;99.90;;;;;;5030842;28;20041;-76
2022/06/29 02:07:58;;;;;;;3.58;1.88;;;18.30;99.90;;;;;;5033066;28;20033;-76
2022/06/29 02:10:23;;;;;;;4.35;1.80;;;18.30;99.90;;;;;;5033538;28;20029;-75
2022/06/29 02:12:49;;;;;;;1.98;1.63;;;18.20;99.90;;;;;;5034976;28;20051;-76
2022/06/29 02:15:15;;;;;;;2.92;1.90;;;18.20;99.90;;;;;;5033813;28;20044;-76
2022/06/29 02:17:41;;;;;;;4.43;1.80;;;18.10;99.90;;;;;;5031854;28;20037;-75
2022/06/29 02:20:07;;;;;;;4.28;1.70;;;18.10;99.90;;;;;;5034119;28;20030;-76
2022/06/29 02:22:34;;;;;;;2.85;1.63;;;18.10;99.90;;;;;;5037439;28;20087;-76
2022/06/29 02:24:59;;;;;;;3.78;1.83;;;18.00;99.90;;;;;;5031411;28;20041;-75
2022/06/29 02:27:25;;;;;;;3.15;1.80;;;18.00;99.90;;;;;;5032867;28;20028;-75
2022/06/29 02:29:51;;;;;;;2.90;1.73;;;18.00;99.90;;;;;;5033568;28;20061;-76
2022/06/29 02:35:02;;;;;;;3.05;1.80;;;18.00;99.90;;;;;;5029952;28;20421;-76
2022/06/29 02:37:28;;;;;;;3.97;1.92;;;18.00;99.90;;;;;;5035658;28;20029;-75
2022/06/29 02:39:54;;;;;;;2.55;1.75;;;18.00;99.90;;;;;;5031996;28;20028;-75
2022/06/29 02:42:19;;;;;;;3.63;1.65;;;18.00;99.90;;;;;;5036353;28;20018;-75
2022/06/29 02:44:45;;;;;;;1.88;1.58;;;18.00;99.90;;;;;;5032036;28;20055;-76
2022/06/29 02:47:11;;;;;;;2.97;1.63;;;18.00;99.90;;;;;;5032002;28;20028;-76
2022/06/29 02:49:37;;;;;;;2.90;1.80;;;18.00;99.90;;;;;;5032773;28;20052;-75
2022/06/29 02:52:03;;;;;;;2.42;1.90;;;18.00;99.90;;;;;;5033403;28;20488;-76
2022/06/29 02:54:29;;;;;;;2.97;1.90;;;17.90;99.90;;;;;;5032419;28;20053;-75
2022/06/29 02:56:55;;;;;;;3.28;1.60;;;17.90;99.90;;;;;;5027479;28;20057;-76
2022/06/29 02:59:21;;;;;;;2.67;1.80;;;17.90;99.90;;;;;;5035438;28;20068;-75
2022/06/29 03:01:48;;;;;;;3.28;1.98;;;17.90;99.90;;;;;;5030203;28;20030;-75
2022/06/29 03:04:14;;;;;;;3.13;1.80;;;17.90;99.90;;;;;;5015953;28;20034;-75
2022/06/29 03:06:41;;;;;;;3.53;1.75;;;17.90;99.90;;;;;;5033853;28;20040;-75
2022/06/29 03:09:08;;;;;;;2.38;1.65;;;17.90;99.90;;;;;;5014896;28;20490;-75
2022/06/29 03:11:33;;;;;;;2.45;1.60;;;17.90;99.90;;;;;;5016401;28;20087;-75
2022/06/29 03:14:00;;;;;;;2.70;1.58;;;17.90;99.90;;;;;;5032951;28;20033;-75
2022/06/29 03:16:25;;;;;;;2.50;1.70;;;17.90;99.90;;;;;;5033044;28;20021;-75
2022/06/29 03:18:52;;;;;;;2.22;1.85;;;17.90;99.90;;;;;;5031938;28;20104;-76
2022/06/29 03:21:18;;;;;;;1.95;1.45;;;17.90;99.90;;;;;;5036305;28;20075;-75
2022/06/29 03:23:45;;;;;;;2.70;1.67;;;17.90;99.90;;;;;;5029668;28;20034;-75
2022/06/29 03:26:11;;;;;;;2.33;1.77;;;17.90;99.90;;;;;;5030259;28;20038;-76
2022/06/29 03:28:37;;;;;;;3.97;1.77;;;17.90;99.90;;;;;;5018137;28;20119;-74
2022/06/29 03:31:04;;;;;;;2.63;1.55;;;17.90;99.90;;;;;;5037227;28;20046;-75
2022/06/29 03:33:31;;;;;;;2.67;1.60;;;17.90;99.90;;;;;;5030484;28;20029;-76
2022/06/29 03:35:57;;;;;;;1.50;1.40;;;17.90;99.90;;;;;;5038053;28;20071;-75
2022/06/29 03:38:25;;;;;;;2.67;1.60;;;17.90;99.90;;;;;;5035725;28;20032;-76
2022/06/29 03:40:51;;;;;;;4.82;1.90;;;17.90;99.90;;;;;;5031363;28;20025;-75
2022/06/29 03:43:17;;;;;;;2.47;2.20;;;17.90;99.90;;;;;;5032726;28;20025;-76
2022/06/29 03:45:43;;;;;;;3.35;1.90;;;18.00;99.90;;;;;;5028223;28;20035;-75
2022/06/29 03:48:08;;;;;;;2.90;1.95;;;18.00;99.90;;;;;;5037368;28;20032;-76
2022/06/29 03:50:34;;;;;;;3.33;1.70;;;17.90;99.90;;;;;;5041630;28;20584;-76
2022/06/29 03:53:00;;;;;;;3.95;1.80;;;18.00;99.90;;;;;;5037290;28;20102;-75
2022/06/29 03:55:26;;;;;;;3.15;1.75;;;18.00;99.90;;;;;;5035801;28;20068;-76
2022/06/29 03:57:51;;;;;;;4.55;1.75;;;18.00;99.90;;;;;;5032976;28;20029;-76
2022/06/29 04:00:17;;;;;;;2.90;1.88;;;18.00;99.90;;;;;;5031375;28;20044;-75
2022/06/29 04:02:43;;;;;;;3.00;1.60;;;18.00;99.90;;;;;;5033634;28;20142;-75
2022/06/29 04:05:09;;;;;;;3.30;1.48;;;18.00;99.90;;;;;;5031095;28;20029;-77
2022/06/29 04:07:35;;;;;;;2.22;1.50;;;18.00;99.90;;;;;;5028635;28;20083;-75
2022/06/29 04:10:01;;;;;;;2.00;1.42;;;17.90;99.90;;;;;;5034413;28;20112;-75
2022/06/29 04:12:29;;;;;;;3.17;1.40;;;17.90;99.90;;;;;;5033350;28;20045;-75
2022/06/29 04:14:54;;;;;;;3.90;1.55;;;17.90;99.90;;;;;;5033216;28;20029;-79
2022/06/29 04:17:20;;;;;;;2.97;1.70;;;18.00;99.90;;;;;;5028880;28;20040;-76
2022/06/29 04:19:47;;;;;;;1.85;1.60;;;18.00;99.90;;;;;;5034307;28;20108;-76
2022/06/29 04:22:12;;;;;;;2.35;1.70;;;18.00;99.90;;;;;;5035294;28;20160;-76
2022/06/29 04:24:38;;;;;;;2.83;1.73;;;18.00;99.90;;;;;;5042293;28;20025;-76
2022/06/29 04:27:04;;;;;;;2.33;1.52;;;18.00;99.90;;;;;;5039350;28;20055;-76
2022/06/29 04:29:30;;;;;;;2.78;1.40;;;18.00;99.90;;;;;;5041284;28;20029;-75
2022/06/29 04:31:56;;;;;;;3.75;1.63;;;18.10;99.90;;;;;;5014698;28;20033;-76
2022/06/29 04:34:21;;;;;;;1.58;1.45;;;18.10;99.90;;;;;;5019789;28;20917;-76
2022/06/29 04:36:48;;;;;;;3.35;1.40;;;18.10;99.90;;;;;;5041564;28;20116;-75
2022/06/29 04:39:15;;;;;;;2.75;1.58;;;18.20;99.90;;;;;;5041413;28;20040;-76
2022/06/29 04:41:40;;;;;;;3.30;1.50;;;18.10;99.90;;;;;;5018037;28;20676;-76
2022/06/29 04:44:06;;;;;;;2.92;1.50;;;18.10;99.90;;;;;;5038856;28;20040;-75
2022/06/29 04:46:32;;;;;;;1.90;1.42;;;18.10;99.90;;;;;;5038213;28;20044;-76
2022/06/29 04:48:59;;;;;;;3.55;2.00;;;18.10;99.90;;;;;;5036819;28;20025;-76
2022/06/29 04:51:28;;;;;;;2.22;1.40;;;18.10;99.90;;;;;;5030653;28;20068;-75
2022/06/29 04:53:56;;;;;;;3.80;1.67;;;18.10;99.90;;;;;;5033506;28;20025;-76
2022/06/29 04:56:30;;;;;;;3.80;1.23;;;18.10;99.90;;;;;;5036745;28;20059;-77
2022/06/29 04:58:58;;;;;;;2.50;1.95;;;18.20;99.90;;;;;;5044571;28;20517;-77
2022/06/29 05:01:27;;;;;;;4.90;1.60;;;18.30;99.90;;;;;;5029047;28;20040;-75
2022/06/29 05:03:55;;;;;;;3.15;1.90;;;18.30;99.90;;;;;;5028240;28;20053;-75
2022/06/29 05:06:22;;;;;;;5.00;1.67;;;18.30;99.90;;;;;;5034616;28;20038;-76
2022/06/29 05:08:53;;;;;;;2.50;1.45;;;18.40;99.90;;;;;;5042022;28;20505;-75
2022/06/29 05:11:22;;;;;;;3.05;1.45;;;18.40;99.90;;;;;;5046469;28;20041;-73
2022/06/29 05:13:49;;;;;;;2.58;1.58;;;18.50;99.90;;;;;;5033390;28;20039;-73
2022/06/29 05:16:15;;;;;;;2.55;1.40;;;18.50;99.90;;;;;;5030703;28;20043;-75
2022/06/29 05:18:41;;;;;;;2.55;1.30;;;18.60;99.90;;;;;;5028384;28;20034;-75
2022/06/29 05:21:09;;;;;;;4.18;1.50;;;18.60;99.90;;;;;;5029815;28;20060;-69
2022/06/29 05:23:35;;;;;;;2.75;1.42;;;18.60;99.90;;;;;;5032656;28;20043;-74
2022/06/29 05:26:00;;;;;;;3.50;1.48;;;18.60;99.90;;;;;;5032835;28;20045;-74
2022/06/29 05:28:26;;;;;;;5.95;1.77;;;18.70;99.90;;;;;;5031682;28;20021;-76
2022/06/29 05:30:52;;;;;;;2.88;1.35;;;18.70;99.90;;;;;;5025012;28;20100;-76
2022/06/29 05:33:18;;;;;;;5.60;1.80;;;18.70;99.90;;;;;;5027661;28;20579;-75
2022/06/29 05:35:45;;;;;;;4.32;1.80;;;18.70;99.90;;;;;;5034288;28;20036;-75
2022/06/29 05:38:10;;;;;;;3.28;1.40;;;18.80;99.90;;;;;;5031982;28;20299;-79
2022/06/29 05:40:37;;;;;;;2.53;1.20;;;18.70;99.90;;;;;;5038482;28;20053;-73
2022/06/29 05:43:03;;;;;;;3.15;1.40;;;19.20;99.90;;;;;;5032413;28;20757;-74
2022/06/29 05:45:29;;;;;;;2.67;1.73;;;19.30;99.90;;;;;;5030829;28;20107;-75
2022/06/29 05:47:56;;;;;;;5.40;1.33;;;19.50;99.90;;;;;;5029801;28;20044;-78
2022/06/29 05:50:23;;;;;;;2.63;1.48;;;19.70;99.90;;;;;;5019367;28;20535;-74
2022/06/29 05:52:49;;;;;;;4.40;1.65;;;19.70;99.90;;;;;;5018900;28;20037;-71
2022/06/29 05:55:15;;;;;;;3.38;1.23;;;19.90;99.90;;;;;;5034198;28;20085;-74
2022/06/29 05:57:41;;;;;;;7.38;1.58;;;19.90;99.90;;;;;;5031471;28;20027;-73
2022/06/29 06:00:08;;;;;;;7.28;1.92;;;19.90;99.90;;;;;;5034294;28;20033;-74
2022/06/29 06:02:33;;;;;;;5.90;1.90;;;20.10;99.90;;;;;;5034441;28;20571;-73
2022/06/29 06:04:59;;;;;;;6.30;1.60;;;20.10;99.90;;;;;;5037230;28;20043;-71
2022/06/29 06:07:25;;;;;;;2.83;1.63;;;20.20;99.80;;;;;;5039010;28;20025;-75
2022/06/29 06:09:50;;;;;;;4.88;1.70;;;20.30;99.90;;;;;;5032543;28;20026;-72
2022/06/29 06:12:16;;;;;;;4.13;1.65;;;20.30;99.60;;;;;;5035688;28;20198;-75
2022/06/29 06:14:42;;;;;;;4.15;1.25;;;20.40;99.90;;;;;;5036737;28;20100;-74
2022/06/29 06:17:08;;;;;;;3.75;1.35;;;20.40;99.90;;;;;;4983469;28;1446334;-73
2022/06/29 06:19:34;;;;;;;4.22;1.52;;;20.50;99.70;;;;;;5034490;28;20036;-74
2022/06/29 06:21:59;;;;;;;4.75;1.50;;;20.60;99.60;;;;;;5036071;28;20037;-73
2022/06/29 06:24:25;;;;;;;3.92;1.40;;;20.60;99.50;;;;;;5030222;28;20108;-73
2022/06/29 06:26:51;;;;;;;4.55;1.50;;;20.60;99.90;;;;;;5034677;28;20029;-75
2022/06/29 06:29:16;;;;;;;5.45;1.65;;;20.50;99.60;;;;;;5041405;28;20021;-76
2022/06/29 06:31:42;;;;;;;12.60;2.95;;;20.60;99.90;;;;;;5034011;28;20021;-76
2022/06/29 06:34:08;;;;;;;12.90;2.83;;;20.60;99.90;;;;;;5031013;28;20029;-76
2022/06/29 06:36:33;;;;;;;2.72;1.55;;;20.70;99.90;;;;;;5032810;28;20037;-75
2022/06/29 06:38:59;;;;;;;2.58;1.50;;;20.80;99.90;;;;;;5039089;28;20099;-75
2022/06/29 06:41:25;;;;;;;4.07;1.40;;;20.60;99.90;;;;;;5027631;28;20029;-76
2022/06/29 06:43:52;;;;;;;3.88;1.50;;;20.60;99.90;;;;;;5031382;28;20526;-75
2022/06/29 06:46:19;;;;;;;4.55;1.60;;;20.60;99.90;;;;;;5031339;28;20041;-75
2022/06/29 06:48:46;;;;;;;2.75;1.80;;;20.60;99.90;;;;;;5033369;28;20516;-77
2022/06/29 06:51:12;;;;;;;6.70;1.40;;;20.70;99.90;;;;;;5035303;28;20112;-75
2022/06/29 06:53:38;;;;;;;3.80;1.50;;;20.70;99.90;;;;;;5027641;28;20040;-76
2022/06/29 06:56:06;;;;;;;2.28;1.52;;;20.70;99.90;;;;;;5027564;28;20044;-75
2022/06/29 06:58:35;;;;;;;3.08;1.80;;;20.80;99.90;;;;;;5029165;28;20408;-76
2022/06/29 07:01:24;;;;;;;5.15;1.63;;;20.80;99.90;;;;;;5027007;28;20022;-76
2022/06/29 07:03:50;;;;;;;3.17;1.50;;;20.80;99.90;;;;;;5031942;28;20025;-76
2022/06/29 07:06:16;;;;;;;2.65;1.75;;;20.90;99.90;;;;;;5033386;28;20060;-76
2022/06/29 07:08:42;;;;;;;2.22;1.55;;;20.90;99.90;;;;;;5028551;28;20050;-75
2022/06/29 07:11:08;;;;;;;4.35;1.70;;;20.90;99.90;;;;;;5025478;28;20493;-76
2022/06/29 07:13:34;;;;;;;3.17;1.63;;;21.00;99.90;;;;;;5027664;28;20028;-76
2022/06/29 07:16:03;;;;;;;2.58;1.52;;;21.00;99.90;;;;;;5027760;28;20025;-76
2022/06/29 07:18:29;;;;;;;3.13;2.00;;;21.10;99.90;;;;;;5018208;28;20040;-76
2022/06/29 07:20:55;;;;;;;6.07;2.03;;;21.10;99.90;;;;;;5029046;28;20092;-76
2022/06/29 07:23:21;;;;;;;3.22;1.80;;;21.10;99.90;;;;;;5004435;28;20703;-75
2022/06/29 07:25:47;;;;;;;3.85;1.75;;;21.10;99.90;;;;;;5032356;28;20059;-75
2022/06/29 07:28:12;;;;;;;3.88;1.83;;;21.20;99.90;;;;;;5028323;28;20449;-76
2022/06/29 07:30:38;;;;;;;5.13;1.60;;;21.10;99.90;;;;;;5037419;28;20040;-76
2022/06/29 07:33:04;;;;;;;6.07;2.10;;;21.20;99.90;;;;;;5031886;28;20035;-76
2022/06/29 07:35:30;;;;;;;3.38;1.60;;;21.30;99.90;;;;;;5034494;28;20025;-76
2022/06/29 07:37:56;;;;;;;4.78;1.90;;;21.30;99.90;;;;;;5036067;28;20030;-76
2022/06/29 07:40:22;;;;;;;7.97;1.80;;;21.30;99.90;;;;;;5038629;28;20032;-76
2022/06/29 07:42:48;;;;;;;4.45;1.67;;;21.30;99.90;;;;;;5034634;28;20576;-76
2022/06/29 07:45:14;;;;;;;5.32;1.98;;;21.30;99.90;;;;;;5038649;28;20068;-75
2022/06/29 07:47:40;;;;;;;3.17;2.10;;;21.30;99.90;;;;;;5029933;28;20045;-75
2022/06/29 07:50:07;;;;;;;3.05;1.50;;;21.50;99.90;;;;;;5034276;28;20025;-76
2022/06/29 07:52:33;;;;;;;4.43;1.90;;;21.60;99.90;;;;;;5031194;28;20033;-76
2022/06/29 07:55:03;;;;;;;4.70;1.83;;;21.70;99.90;;;;;;5029284;28;20033;-76
2022/06/29 07:57:29;;;;;;;2.63;1.58;;;21.80;99.90;;;;;;5027456;28;20090;-76
2022/06/29 07:59:55;;;;;;;3.90;1.70;;;21.80;99.90;;;;;;5030614;28;20021;-77
2022/06/29 08:02:21;;;;;;;5.13;1.70;;;21.90;99.90;;;;;;5036307;28;20072;-77
2022/06/29 08:04:47;;;;;;;6.70;1.83;;;22.10;99.90;;;;;;5033671;28;20045;-76
2022/06/29 08:07:13;;;;;;;3.38;2.05;;;22.10;99.90;;;;;;5013138;28;20488;-77
2022/06/29 08:09:38;;;;;;;2.55;1.92;;;22.20;99.90;;;;;;5045774;28;20133;-76
2022/06/29 08:12:04;;;;;;;2.92;1.67;;;22.20;99.90;;;;;;5033765;28;20096;-76
2022/06/29 08:14:30;;;;;;;5.95;1.98;;;22.20;99.90;;;;;;5033718;28;20108;-74
2022/06/29 08:16:56;;;;;;;3.60;1.88;;;22.30;99.90;;;;;;5031839;28;20038;-75
2022/06/29 08:19:21;;;;;;;3.15;1.65;;;22.30;99.90;;;;;;5034688;28;20022;-75
2022/06/29 08:21:48;;;;;;;4.65;1.80;;;22.40;99.90;;;;;;5035828;28;20032;-76
2022/06/29 08:24:14;;;;;;;4.85;1.80;;;22.40;99.90;;;;;;5031283;28;20494;-75
2022/06/29 08:26:39;;;;;;;6.85;2.13;;;22.40;99.50;;;;;;5035221;28;20040;-76
2022/06/29 08:29:05;;;;;;;3.85;1.73;;;22.50;99.90;;;;;;5014053;28;20033;-75
2022/06/29 08:31:31;;;;;;;3.83;1.67;;;22.60;99.80;;;;;;5030630;28;20263;-75
2022/06/29 08:33:56;;;;;;;3.47;1.50;;;22.60;99.70;;;;;;5027807;28;20032;-75
2022/06/29 08:36:22;;;;;;;4.85;1.98;;;22.60;99.80;;;;;;5033799;28;20041;-76
2022/06/29 08:38:48;;;;;;;2.67;1.85;;;22.70;99.70;;;;;;5017368;28;20550;-76
2022/06/29 08:41:15;;;;;;;6.35;1.95;;;22.70;99.90;;;;;;5033050;28;20033;-75
2022/06/29 08:43:42;;;;;;;3.10;1.88;;;22.70;99.90;;;;;;5034791;28;20042;-76
2022/06/29 08:46:12;;;;;;;3.92;2.33;;;22.80;99.60;;;;;;5037242;28;20029;-76
2022/06/29 08:48:38;;;;;;;3.22;1.88;;;22.80;99.30;;;;;;5032508;28;20040;-77
2022/06/29 08:51:06;;;;;;;3.60;1.92;;;22.80;99.30;;;;;;5034644;28;20037;-75
2022/06/29 08:53:32;;;;;;;5.22;1.90;;;22.80;99.60;;;;;;5034245;28;20571;-75
2022/06/29 08:56:00;;;;;;;3.20;1.90;;;22.90;99.50;;;;;;5030390;28;20042;-76
2022/06/29 08:58:27;;;;;;;4.68;1.90;;;22.90;99.50;;;;;;5031905;28;20058;-77
2022/06/29 09:00:53;;;;;;;2.53;1.75;;;22.90;99.30;;;;;;5030088;28;20041;-76
2022/06/29 09:03:22;;;;;;;3.00;1.83;;;22.90;99.30;;;;;;5032095;28;20401;-77
2022/06/29 09:06:01;;;;;;;3.60;1.80;;;22.90;99.60;;;;;;5031936;28;20040;-76
2022/06/29 09:08:27;;;;;;;3.30;2.10;;;22.90;99.60;;;;;;5034051;28;20025;-75
2022/06/29 09:10:53;;;;;;;6.68;2.08;;;23.10;99.40;;;;;;5038652;28;20037;-76
2022/06/29 09:13:23;;;;;;;2.45;1.75;;;23.10;99.60;;;;;;5031857;28;20074;-77
2022/06/29 09:15:59;;;;;;;4.15;1.80;;;23.20;99.40;;;;;;5037217;28;20104;-78
2022/06/29 09:18:27;;;;;;;3.78;2.03;;;23.20;99.30;;;;;;5033014;28;20032;-76
2022/06/29 09:20:57;;;;;;;3.28;1.90;;;23.20;99.10;;;;;;5036528;28;20107;-76
2022/06/29 09:23:24;;;;;;;3.65;2.10;;;23.30;99.10;;;;;;5040045;28;20589;-76
2022/06/29 09:25:51;;;;;;;3.05;2.08;;;23.40;99.10;;;;;;5036221;28;20068;-76
2022/06/29 09:28:19;;;;;;;3.40;1.85;;;23.40;98.90;;;;;;5038071;28;20025;-75
2022/06/29 09:30:45;;;;;;;4.50;1.98;;;23.50;99.00;;;;;;5036371;28;20485;-75
2022/06/29 09:33:11;;;;;;;3.45;1.80;;;23.70;98.40;;;;;;5037220;28;20033;-76
2022/06/29 09:35:38;;;;;;;3.42;1.98;;;23.70;98.20;;;;;;5034249;28;20025;-77
2022/06/29 09:38:20;;;;;;;3.28;2.08;;;23.80;98.10;;;;;;5040449;28;20072;-77
2022/06/29 09:41:08;;;;;;;4.07;1.95;;;23.80;98.00;;;;;;5032865;28;20032;-77
2022/06/29 09:43:41;;;;;;;7.93;2.33;;;23.90;97.60;;;;;;5033934;28;20034;-76
2022/06/29 09:46:13;;;;;;;3.45;2.05;;;23.90;96.90;;;;;;5037678;28;20513;-76
2022/06/29 09:48:40;;;;;;;3.03;2.08;;;24.00;97.20;;;;;;5035449;28;20061;-76
2022/06/29 09:53:59;;;;;;;2.97;2.05;;;24.10;95.70;;;;;;5039569;28;20033;-76
2022/06/29 09:56:28;;;;;;;4.60;2.17;;;24.20;96.00;;;;;;5037605;28;20033;-77
2022/06/29 09:58:59;;;;;;;4.07;1.90;;;24.30;96.10;;;;;;5033967;28;20029;-77
2022/06/29 10:04:13;;;;;;;2.38;2.13;;;24.40;95.90;;;;;;5029759;28;20400;-80
2022/06/29 10:06:41;;;;;;;2.25;1.67;;;24.50;95.70;;;;;;5037721;28;20056;-77
2022/06/29 10:09:07;;;;;;;3.10;2.00;;;24.60;95.60;;;;;;5018644;28;20021;-76
2022/06/29 10:15:10;;;;;;;3.28;2.15;;;24.60;94.50;;;;;;5041116;28;20025;-77
2022/06/29 10:18:11;;;;;;;3.45;1.88;;;24.60;94.30;;;;;;5031631;28;20080;-78
2022/06/29 10:20:46;;;;;;;2.30;2.08;;;24.50;94.00;;;;;;5037633;28;20060;-76
2022/06/29 10:23:46;;;;;;;2.35;1.80;;;24.50;94.50;;;;;;5028622;28;20100;-76
2022/06/29 10:26:36;;;;;;;1.92;1.70;;;24.70;94.20;;;;;;5020323;28;20533;-76
2022/06/29 10:29:19;;;;;;;4.15;1.67;;;24.70;94.10;;;;;;5030880;28;20476;-77
2022/06/29 10:31:51;;;;;;;1.90;1.80;;;24.80;94.20;;;;;;5022293;28;20043;-77
2022/06/29 10:34:37;;;;;;;4.80;1.90;;;25.00;94.30;;;;;;5017058;28;20493;-76
2022/06/29 10:37:07;;;;;;;4.78;1.90;;;25.20;92.80;;;;;;5002702;28;20034;-77
2022/06/29 10:39:41;;;;;;;2.47;1.80;;;25.20;92.90;;;;;;5006033;28;20032;-78
2022/06/29 10:45:13;;;;;;;1.83;1.70;;;25.40;93.30;;;;;;5037731;28;20051;-76
2022/06/29 10:47:39;;;;;;;4.55;1.92;;;25.60;92.80;;;;;;5028453;28;20120;-77
2022/06/29 10:50:15;;;;;;;6.05;1.75;;;25.70;91.30;;;;;;5006915;28;20025;-73
2022/06/29 10:52:42;;;;;;;4.68;1.70;;;25.80;91.00;;;;;;5020662;28;20055;-81
2022/06/29 10:55:08;;;;;;;2.20;1.70;;;25.90;91.70;;;;;;5015049;28;20652;-76
2022/06/29 10:57:36;;;;;;;3.15;1.73;;;26.00;91.60;;;;;;5000642;28;20759;-74
2022/06/29 11:00:08;;;;;;;3.75;2.10;;;26.00;91.90;;;;;;5006097;28;20033;-75
2022/06/29 11:02:35;;;;;;;5.40;2.10;;;26.00;91.40;;;;;;5004244;28;20078;-76
2022/06/29 11:05:01;;;;;;;5.00;2.33;;;26.00;90.30;;;;;;5017682;28;20033;-77
2022/06/29 11:12:57;;;;;;;3.97;2.40;;;25.60;89.90;;;;;;5036283;28;20026;-75
2022/06/29 11:15:42;;;;;;;2.58;1.83;;;25.70;89.90;;;;;;5008106;28;20065;-76
2022/06/29 11:18:12;;;;;;;5.57;2.20;;;25.80;90.00;;;;;;5002923;28;20501;-77
2022/06/29 11:20:39;;;;;;;2.33;2.10;;;26.10;87.20;;;;;;5014164;28;20430;-77
2022/06/29 11:23:12;;;;;;;3.20;1.95;;;26.10;87.10;;;;;;5024283;28;20021;-74
2022/06/29 11:25:40;;;;;;;2.50;1.80;;;26.40;86.10;;;;;;5031476;28;20560;-73
2022/06/29 11:28:06;;;;;;;2.78;2.10;;;26.60;84.00;;;;;;5028185;28;20490;-73
2022/06/29 11:30:33;;;;;;;2.97;2.10;;;27.00;81.90;;;;;;5024924;28;20170;-72
2022/06/29 11:32:58;;;;;;;5.78;2.08;;;27.80;78.40;;;;;;5024123;28;20079;-72
2022/06/29 11:35:26;;;;;;;3.83;2.00;;;28.20;75.10;;;;;;5026353;28;20120;-74
2022/06/29 11:37:54;;;;;;;5.68;1.70;;;27.90;73.30;;;;;;5030758;28;20029;-73
2022/06/29 11:40:29;;;;;;;4.22;1.98;;;28.50;73.20;;;;;;5031911;28;20025;-74
2022/06/29 11:43:07;;;;;;;6.60;1.70;;;29.90;68.20;;;;;;5024037;28;20055;-78
2022/06/29 11:45:46;;;;;;;4.10;1.70;;;31.10;65.10;;;;;;5027798;28;20038;-78
2022/06/29 11:48:26;;;;;;;2.10;1.50;;;32.60;61.10;;;;;;5027797;28;20025;-76
2022/06/29 11:50:53;;;;;;;8.13;2.25;;;33.80;56.00;;;;;;5013351;28;20021;-77
2022/06/29 11:53:45;;;;;;;4.80;2.00;;;34.00;53.20;;;;;;5031110;28;20021;-77
2022/06/29 11:56:13;;;;;;;4.72;1.60;;;34.10;50.80;;;;;;5030681;28;20086;-77
2022/06/29 11:58:42;;;;;;;2.55;1.80;;;33.90;51.70;;;;;;5027370;28;20024;-76
2022/06/29 12:01:13;;;;;;;2.58;1.50;;;33.20;52.10;;;;;;5008195;28;20120;-78
2022/06/29 12:03:46;;;;;;;2.13;1.70;;;32.80;51.60;;;;;;5030035;28;20494;-77
2022/06/29 12:06:14;;;;;;;3.83;1.60;;;32.40;52.90;;;;;;5030176;28;20037;-77
2022/06/29 12:08:40;;;;;;;2.42;1.52;;;32.10;50.70;;;;;;5030401;28;20029;-77
2022/06/29 12:11:06;;;;;;;6.10;1.50;;;32.10;50.60;;;;;;5032221;28;20025;-79
2022/06/29 12:13:35;;;;;;;3.88;1.40;;;32.00;50.50;;;;;;5028182;28;20091;-77
2022/06/29 12:16:02;;;;;;;1.83;1.50;;;31.70;50.50;;;;;;5014430;28;20477;-77
2022/06/29 12:18:28;;;;;;;3.45;1.60;;;32.10;49.10;;;;;;5026949;28;20056;-77
2022/06/29 12:20:53;;;;;;;4.05;1.70;;;32.40;49.80;;;;;;5030796;28;20129;-77
2022/06/29 12:23:19;;;;;;;2.47;1.80;;;32.90;47.90;;;;;;5032973;28;20216;-77
2022/06/29 12:25:45;;;;;;;3.50;1.80;;;32.80;49.90;;;;;;5029510;28;20037;-79
2022/06/29 12:28:11;;;;;;;5.40;1.75;;;32.30;49.20;;;;;;5029780;28;20121;-76
2022/06/29 12:30:38;;;;;;;1.73;1.60;;;31.00;48.50;;;;;;5030443;28;20828;-77
2022/06/29 12:33:06;;;;;;;1.90;1.40;;;30.90;50.10;;;;;;5012980;28;20055;-78
2022/06/29 12:35:33;;;;;;;2.97;1.60;;;30.80;50.80;;;;;;5034000;28;20206;-77
2022/06/29 12:37:59;;;;;;;1.90;1.35;;;30.20;49.00;;;;;;5033405;28;20169;-76
2022/06/29 12:40:26;;;;;;;1.80;1.50;;;30.80;50.10;;;;;;5029904;28;20037;-77
2022/06/29 12:42:53;;;;;;;2.25;1.70;;;31.80;50.60;;;;;;5024834;28;20041;-76
2022/06/29 12:45:19;;;;;;;2.33;1.67;;;32.50;49.40;;;;;;5034231;28;20014;-76
2022/06/29 12:47:45;;;;;;;8.88;6.28;;;32.40;48.60;;;;;;5031004;28;20017;-77
2022/06/29 12:50:11;;;;;;;27.25;22.30;;;32.60;48.90;;;;;;5027663;28;20060;-78
2022/06/29 12:52:40;;;;;;;5.25;3.88;;;32.60;49.30;;;;;;5031621;28;20080;-77
2022/06/29 12:55:08;;;;;;;5.15;4.63;;;32.70;48.50;;;;;;5030614;28;20029;-76
2022/06/29 12:57:34;;;;;;;3.03;2.55;;;32.50;48.90;;;;;;5031284;28;20025;-76
2022/06/29 12:59:59;;;;;;;3.00;1.73;;;32.10;49.10;;;;;;5032671;28;20026;-76
2022/06/29 13:02:26;;;;;;;5.60;1.77;;;31.90;48.50;;;;;;5034628;28;20731;-77
2022/06/29 13:04:53;;;;;;;2.00;1.80;;;31.60;48.20;;;;;;5027567;28;20030;-77
2022/06/29 13:07:18;;;;;;;2.78;1.60;;;31.90;48.80;;;;;;5025633;28;20092;-78